Terminal Aerodrome Forecast
Issued by NWS

Home | Current Version | Previous Version | Text Only | Print | Product List | Glossary On
Versions: 1 2 3 4 5 6 7 8 9 10 11 12 13 14 15 16 17 18 19 20 21 22 23 24
000
FTUS44 KLIX 231721
TAFGPT
TAF
KGPT 231721Z 2318/2418 12013G22KT P6SM BKN011 BKN028 BKN050
     FM232100 13009KT P6SM SCT030 BKN050
     FM240000 13008KT P6SM VCSH SCT025 BKN070
     FM240300 13008KT 2SM BR SCT020 BKN025 PROB30 2404/2408 1SM
      -SHRA BR BKN020
     FM241100 15007KT 2SM BR BKN008 BKN025 PROB30 2411/2412 1SM
      -SHRA BR OVC003=

USA.gov is the U.S. government's official web portal to all federal, state and local government web resources and services.